createdAt,value
2022-12-03T00:02:14.933Z,17.00
2022-12-03T00:06:24.425Z,16.20
2022-12-03T00:10:32.400Z,17.50
2022-12-03T00:14:44.400Z,15.50
2022-12-03T00:18:53.017Z,13.50
2022-12-03T00:23:00.500Z,13.90
2022-12-03T00:27:10.011Z,14.90
2022-12-03T00:31:17.950Z,11.90
2022-12-03T00:35:25.973Z,14.40
2022-12-03T00:39:33.759Z,18.60
2022-12-03T00:43:41.624Z,18.90
2022-12-03T00:47:49.031Z,18.20
2022-12-03T00:51:56.910Z,15.30
2022-12-03T00:56:04.665Z,16.30
2022-12-03T01:00:14.825Z,14.80
2022-12-03T01:04:22.603Z,15.10
2022-12-03T01:08:30.195Z,15.20
2022-12-03T01:12:37.509Z,16.90
2022-12-03T01:16:46.485Z,18.50
2022-12-03T01:20:55.026Z,17.50
2022-12-03T01:25:03.647Z,17.40
2022-12-03T01:29:11.496Z,17.00
2022-12-03T01:33:19.385Z,17.10
2022-12-03T01:37:28.172Z,17.10
2022-12-03T01:41:37.082Z,19.30
2022-12-03T01:45:44.731Z,18.90
2022-12-03T01:49:55.580Z,17.30
2022-12-03T01:54:04.099Z,16.20
2022-12-03T01:58:14.280Z,17.00
2022-12-03T02:02:25.016Z,14.30
2022-12-03T02:06:33.574Z,15.70
2022-12-03T02:10:41.826Z,14.80
2022-12-03T02:14:49.867Z,20.20
2022-12-03T02:18:59.571Z,18.30
2022-12-03T02:23:12.428Z,19.20
2022-12-03T02:27:20.433Z,16.10
2022-12-03T02:31:28.149Z,15.80
2022-12-03T02:35:36.885Z,15.60
2022-12-03T02:39:47.988Z,14.90
2022-12-03T02:43:55.995Z,14.90
2022-12-03T02:48:10.410Z,19.70
2022-12-03T02:52:18.132Z,21.60
2022-12-03T02:56:28.144Z,16.90
2022-12-03T03:00:36.772Z,17.40
2022-12-03T03:04:44.947Z,18.20
2022-12-03T03:08:53.575Z,16.60
2022-12-03T03:13:02.200Z,15.70
2022-12-03T03:17:11.714Z,20.10
2022-12-03T03:21:22.305Z,19.60
2022-12-03T03:25:29.867Z,16.40
2022-12-03T03:29:40.388Z,15.30
2022-12-03T03:33:48.949Z,16.80
2022-12-03T03:38:00.157Z,12.20
2022-12-03T03:42:07.937Z,20.70
2022-12-03T03:46:15.740Z,19.50
2022-12-03T03:50:23.792Z,17.60
2022-12-03T03:54:32.049Z,16.70
2022-12-03T03:58:40.131Z,15.10
2022-12-03T04:02:49.456Z,13.80
2022-12-03T04:06:57.283Z,15.50
2022-12-03T04:11:22.558Z,19.40
2022-12-03T04:15:30.881Z,20.40
2022-12-03T04:19:39.491Z,18.40
2022-12-03T04:23:47.907Z,16.50
2022-12-03T04:28:13.363Z,14.60
2022-12-03T04:32:39.688Z,15.90
2022-12-03T04:36:47.956Z,15.00
2022-12-03T04:41:05.391Z,18.30
2022-12-03T04:45:14.386Z,19.60
2022-12-03T04:49:22.021Z,18.60
2022-12-03T04:53:29.850Z,15.70
2022-12-03T04:57:37.492Z,16.00
2022-12-03T05:01:45.630Z,16.50
2022-12-03T05:05:53.422Z,15.20
2022-12-03T05:10:01.322Z,13.90
2022-12-03T05:14:09.359Z,21.30
2022-12-03T05:18:19.976Z,20.90
2022-12-03T05:22:27.620Z,19.70
2022-12-03T05:26:35.201Z,15.80
2022-12-03T05:30:42.827Z,16.70
2022-12-03T05:34:51.247Z,16.30
2022-12-03T05:38:59.166Z,16.50
2022-12-03T05:43:07.862Z,13.80
2022-12-03T05:47:16.054Z,19.80
2022-12-03T05:51:24.184Z,20.70
2022-12-03T05:55:31.600Z,17.80
2022-12-03T05:59:39.777Z,15.20
2022-12-03T06:03:47.964Z,14.40
2022-12-03T06:07:56.410Z,14.10
2022-12-03T06:12:04.957Z,12.90
2022-12-03T06:16:12.911Z,12.70
2022-12-03T06:20:21.806Z,18.20
2022-12-03T06:24:29.697Z,20.10
2022-12-03T06:28:37.308Z,18.00
2022-12-03T06:32:44.864Z,16.10
2022-12-03T06:36:52.923Z,14.80
2022-12-03T06:41:00.644Z,14.70
2022-12-03T06:45:09.939Z,15.30
2022-12-03T06:49:17.416Z,14.70
2022-12-03T06:53:25.404Z,19.30
2022-12-03T06:57:32.849Z,20.70
2022-12-03T07:01:40.494Z,19.60
2022-12-03T07:05:48.288Z,17.40
2022-12-03T07:09:56.088Z,15.60
2022-12-03T07:14:06.606Z,14.70
2022-12-03T07:18:14.924Z,15.00
2022-12-03T07:22:22.575Z,15.20
2022-12-03T07:26:30.384Z,20.00
2022-12-03T07:30:38.710Z,20.20
2022-12-03T07:34:46.532Z,19.60
2022-12-03T07:38:54.514Z,16.00
2022-12-03T07:43:03.668Z,14.70
2022-12-03T07:47:11.178Z,15.60
2022-12-03T07:51:19.612Z,12.90
2022-12-03T07:55:27.056Z,14.80
2022-12-03T07:59:34.855Z,19.30
2022-12-03T08:03:43.468Z,19.80
2022-12-03T08:07:52.758Z,20.30
2022-12-03T08:12:03.500Z,17.30
2022-12-03T08:16:18.751Z,17.70
2022-12-03T08:20:30.550Z,15.40
2022-12-03T08:24:38.808Z,14.40
2022-12-03T08:28:46.637Z,19.30
2022-12-03T08:32:54.322Z,22.50
2022-12-03T08:37:19.979Z,18.00
2022-12-03T08:41:45.894Z,17.90
2022-12-03T08:45:55.255Z,17.50
2022-12-03T08:50:08.473Z,16.60
2022-12-03T08:54:19.680Z,15.00
2022-12-03T08:58:36.517Z,22.50
2022-12-03T09:02:49.986Z,22.40
2022-12-03T09:06:59.199Z,23.00
2022-12-03T09:11:07.913Z,19.20
2022-12-03T09:15:16.519Z,17.60
2022-12-03T09:19:24.362Z,19.40
2022-12-03T09:23:32.266Z,16.60
2022-12-03T09:27:40.097Z,17.00
2022-12-03T09:31:47.225Z,21.70
2022-12-03T09:35:54.886Z,26.10
2022-12-03T09:40:02.700Z,23.20
2022-12-03T09:44:17.466Z,21.40
2022-12-03T09:48:27.061Z,19.20
2022-12-03T09:52:36.508Z,19.40
2022-12-03T09:56:45.122Z,19.50
2022-12-03T10:00:54.766Z,18.80
2022-12-03T10:05:03.805Z,20.40
2022-12-03T10:09:14.939Z,24.70
2022-12-03T10:13:27.387Z,24.20
2022-12-03T10:17:35.419Z,25.20
2022-12-03T10:21:46.474Z,21.80
2022-12-03T10:25:56.144Z,20.20
2022-12-03T10:30:06.735Z,21.70
2022-12-03T10:34:14.721Z,20.90
2022-12-03T10:38:24.885Z,19.20
2022-12-03T10:42:34.543Z,25.40
2022-12-03T10:46:44.497Z,25.20
2022-12-03T10:50:54.243Z,24.40
2022-12-03T10:55:02.479Z,21.60
2022-12-03T10:59:13.312Z,22.00
2022-12-03T11:03:23.712Z,18.30
2022-12-03T11:11:58.065Z,26.40
2022-12-03T11:16:09.508Z,26.00
2022-12-03T11:21:06.928Z,23.70
2022-12-03T11:25:56.814Z,19.80
2022-12-03T11:30:05.582Z,23.10
2022-12-03T11:34:50.316Z,18.50
2022-12-03T11:39:00.361Z,29.50
2022-12-03T11:43:08.722Z,28.00
2022-12-03T11:47:19.234Z,21.90
2022-12-03T11:51:28.474Z,23.30
2022-12-03T11:55:38.472Z,23.00
2022-12-03T12:00:00.757Z,23.30
2022-12-03T12:04:10.074Z,22.90
2022-12-03T12:08:22.428Z,29.80
2022-12-03T12:12:33.606Z,31.00
2022-12-03T12:16:46.365Z,26.60
2022-12-03T12:25:41.543Z,25.30
2022-12-03T12:38:46.454Z,23.00
2022-12-03T12:42:57.712Z,31.30
2022-12-03T12:47:13.903Z,29.30
2022-12-03T12:55:48.375Z,25.70
2022-12-03T12:59:58.087Z,27.40
2022-12-03T13:04:13.862Z,28.40
2022-12-03T13:08:30.108Z,29.30
2022-12-03T13:12:37.859Z,32.40
2022-12-03T13:16:45.951Z,28.50
2022-12-03T13:20:54.309Z,27.40
2022-12-03T13:25:32.818Z,23.80
2022-12-03T13:29:47.463Z,25.40
2022-12-03T13:33:56.186Z,23.40
2022-12-03T13:38:04.279Z,31.40
2022-12-03T13:42:42.374Z,30.90
2022-12-03T13:46:50.287Z,29.40
2022-12-03T13:51:01.134Z,28.40
2022-12-03T13:55:12.475Z,25.60
2022-12-03T13:59:25.994Z,29.30
2022-12-03T14:03:34.301Z,28.90
2022-12-03T14:07:42.238Z,32.10
2022-12-03T14:12:09.478Z,32.60
2022-12-03T14:16:18.258Z,28.80
2022-12-03T14:20:26.323Z,29.00
2022-12-03T14:24:34.341Z,28.30
2022-12-03T14:28:42.649Z,26.80
2022-12-03T14:32:50.445Z,34.90
2022-12-03T14:36:58.843Z,39.90
2022-12-03T14:41:36.788Z,34.00
2022-12-03T14:45:44.823Z,30.80
2022-12-03T14:49:53.080Z,30.80
2022-12-03T14:54:01.030Z,30.50
2022-12-03T15:02:34.612Z,31.30
2022-12-03T15:06:42.791Z,40.20
2022-12-03T15:10:52.137Z,37.80
2022-12-03T15:14:59.949Z,31.10
2022-12-03T15:19:07.593Z,29.80
2022-12-03T15:23:14.963Z,31.90
2022-12-03T15:27:25.520Z,26.10
2022-12-03T15:31:33.509Z,28.40
2022-12-03T15:35:42.961Z,37.10
2022-12-03T15:39:50.762Z,32.40
2022-12-03T15:44:00.184Z,28.80
2022-12-03T15:48:09.221Z,27.30
2022-12-03T15:52:17.383Z,26.80
2022-12-03T15:56:25.688Z,26.70
2022-12-03T16:00:34.167Z,33.40
2022-12-03T16:04:52.471Z,32.80
2022-12-03T16:09:04.430Z,26.80
2022-12-03T16:13:12.814Z,28.60
2022-12-03T16:17:36.517Z,26.30
2022-12-03T16:21:44.595Z,23.00
2022-12-03T16:25:52.766Z,31.10
2022-12-03T16:30:02.367Z,28.60
2022-12-03T16:34:13.778Z,26.20
2022-12-03T16:38:22.498Z,24.50
2022-12-03T16:42:30.013Z,21.80
2022-12-03T16:46:38.043Z,22.80
2022-12-03T16:50:45.742Z,29.10
2022-12-03T16:54:53.563Z,28.20
2022-12-03T16:59:01.102Z,23.70
2022-12-03T17:03:08.543Z,24.30
2022-12-03T17:07:16.656Z,25.00
2022-12-03T17:11:25.446Z,22.80
2022-12-03T17:15:33.371Z,29.20
2022-12-03T17:19:41.588Z,30.00
2022-12-03T17:23:51.247Z,27.40
2022-12-03T17:28:00.149Z,26.20
2022-12-03T17:32:08.936Z,25.40
2022-12-03T17:36:17.000Z,21.40
2022-12-03T17:40:25.038Z,24.50
2022-12-03T17:44:32.846Z,32.10
2022-12-03T17:48:42.842Z,30.10
2022-12-03T17:52:50.774Z,28.30
2022-12-03T17:56:58.723Z,28.10
2022-12-03T18:01:08.913Z,25.90
2022-12-03T18:05:16.635Z,27.20
2022-12-03T18:09:24.415Z,31.50
2022-12-03T18:13:32.304Z,31.00
2022-12-03T18:17:40.402Z,28.20
2022-12-03T18:21:48.336Z,27.50
2022-12-03T18:25:56.617Z,28.70
2022-12-03T18:30:05.375Z,27.50
2022-12-03T18:34:13.199Z,32.40
2022-12-03T18:38:21.477Z,31.50
2022-12-03T18:42:31.101Z,30.10
2022-12-03T18:46:53.495Z,29.90
2022-12-03T18:51:02.183Z,29.90
2022-12-03T18:55:12.371Z,29.60
2022-12-03T18:59:19.841Z,31.70
2022-12-03T19:03:27.889Z,36.40
2022-12-03T19:07:35.867Z,35.80
2022-12-03T19:11:43.526Z,34.20
2022-12-03T19:15:52.092Z,30.50
2022-12-03T19:19:59.615Z,32.20
2022-12-03T19:24:24.245Z,32.20
2022-12-03T19:28:33.267Z,31.00
2022-12-03T19:32:41.228Z,37.60
2022-12-03T19:36:48.942Z,33.50
2022-12-03T19:41:03.847Z,30.30
2022-12-03T19:45:13.103Z,31.10
2022-12-03T19:49:22.728Z,32.20
2022-12-03T19:53:32.012Z,30.60
2022-12-03T19:57:40.702Z,35.20
2022-12-03T20:01:48.336Z,37.00
2022-12-03T20:05:56.124Z,34.70
2022-12-03T20:10:04.571Z,35.10
2022-12-03T20:14:15.554Z,33.80
2022-12-03T20:18:23.626Z,31.50
2022-12-03T20:22:31.568Z,34.50
2022-12-03T20:26:43.061Z,41.00
2022-12-03T20:31:01.307Z,44.40
2022-12-03T20:35:09.995Z,42.00
2022-12-03T20:39:18.437Z,39.10
2022-12-03T20:43:25.942Z,37.50
2022-12-03T20:47:33.362Z,41.40
2022-12-03T20:51:42.992Z,43.70
2022-12-03T20:55:58.401Z,46.30
2022-12-03T21:00:09.662Z,49.80
2022-12-03T21:04:18.376Z,45.80
2022-12-03T21:08:40.492Z,41.70
2022-12-03T21:12:49.097Z,37.20
2022-12-03T21:17:08.471Z,41.20
2022-12-03T21:21:19.884Z,40.90
2022-12-03T21:25:27.476Z,48.40
2022-12-03T21:29:36.261Z,49.20
2022-12-03T21:33:44.622Z,49.50
2022-12-03T21:37:52.873Z,43.10
2022-12-03T21:42:34.883Z,40.10
2022-12-03T21:47:11.640Z,44.90
2022-12-03T21:51:09.088Z,36.20
2022-12-03T21:55:17.544Z,52.30
2022-12-03T21:59:25.479Z,52.20
2022-12-03T22:03:34.618Z,47.80
2022-12-03T22:07:43.864Z,41.90
2022-12-03T22:11:51.749Z,43.20
2022-12-03T22:15:59.493Z,42.30
2022-12-03T22:20:09.628Z,36.80
2022-12-03T22:24:18.975Z,50.40
2022-12-03T22:28:26.435Z,47.80
2022-12-03T22:32:34.442Z,44.70
2022-12-03T22:36:42.852Z,42.20
2022-12-03T22:40:50.612Z,39.30
2022-12-03T22:44:58.357Z,45.40
2022-12-03T22:49:07.651Z,50.20
2022-12-03T22:53:15.931Z,43.50
2022-12-03T22:57:23.910Z,42.50
2022-12-03T23:01:34.018Z,40.30
2022-12-03T23:05:42.527Z,36.90
2022-12-03T23:09:50.306Z,48.00
2022-12-03T23:13:59.286Z,44.30
2022-12-03T23:18:07.173Z,45.30
2022-12-03T23:22:14.708Z,40.80
2022-12-03T23:26:22.379Z,40.70
2022-12-03T23:30:30.311Z,42.40
2022-12-03T23:34:39.233Z,35.20
2022-12-03T23:38:47.078Z,49.10
2022-12-03T23:42:55.272Z,47.30
2022-12-03T23:47:04.033Z,44.30
2022-12-03T23:51:15.260Z,39.20
2022-12-03T23:55:24.120Z,40.90
2022-12-03T23:59:31.669Z,36.10
